Time;durP1;ratioP1;P1;durP2;ratioP2;P2;SDS_P1;SDS_P2;PMS_P1;PMS_P2;Temp;Humidity;BMP_temperature;BMP_pressure;BME280_temperature;BME280_humidity;BME280_pressure;Samples;Min_cycle;Max_cycle;Signal;HPM_P1;HPM_P2
2022/09/08 00:01:07;;;;;;;;;;;;;;;;;;4883320;29;20062;-86
2022/09/08 00:03:33;;;;;;;;;;;;;;;;;;4882750;29;20021;-86
2022/09/08 00:05:59;;;;;;;;;;;;;;;;;;4908011;29;19990;-86
2022/09/08 00:08:25;;;;;;;;;;;;;;;;;;4893898;29;19930;-86
2022/09/08 00:10:51;;;;;;;;;;;;;;;;;;4869452;29;19923;-86
2022/09/08 00:13:17;;;;;;;;;;;;;;;;;;4904936;28;20494;-87
2022/09/08 00:15:43;;;;;;;;;;;;;;;;;;4885168;29;19934;-86
2022/09/08 00:18:09;;;;;;;;;;;;;;;;;;4875953;29;19923;-86
2022/09/08 00:20:35;;;;;;;;;;;;;;;;;;4872753;29;19923;-86
2022/09/08 00:23:01;;;;;;;;;;;;;;;;;;4870343;29;19959;-87
2022/09/08 00:25:29;;;;;;;;;;;;;;;;;;4885057;29;19930;-86
2022/09/08 00:27:55;;;;;;;;;;;;;;;;;;4890290;29;19929;-86
2022/09/08 00:30:21;;;;;;;;;;;;;;;;;;4894568;29;19923;-87
2022/09/08 00:32:47;;;;;;;;;;;;;;;;;;4883928;29;19930;-87
2022/09/08 00:35:14;;;;;;;;;;;;;;;;;;4887926;29;20024;-86
2022/09/08 00:37:40;;;;;;;;;;;;;;;;;;4870273;29;20287;-86
2022/09/08 00:40:06;;;;;;;;;;;;;;;;;;4875814;29;19987;-86
2022/09/08 00:42:32;;;;;;;;;;;;;;;;;;4864806;29;20466;-86
2022/09/08 00:44:58;;;;;;;;;;;;;;;;;;4873736;29;20001;-86
2022/09/08 00:47:30;;;;;;;;;;;;;;;;;;4872150;29;20417;-86
2022/09/08 00:49:56;;;;;;;;;;;;;;;;;;4890837;29;19958;-86
2022/09/08 00:52:22;;;;;;;;;;;;;;;;;;4875055;29;20394;-87
2022/09/08 00:54:48;;;;;;;;;;;;;;;;;;4869283;29;20067;-86
2022/09/08 00:57:14;;;;;;;;;;;;;;;;;;4882173;29;19923;-86
2022/09/08 00:59:40;;;;;;;;;;;;;;;;;;4881992;29;20400;-86
2022/09/08 01:02:06;;;;;;;;;;;;;;;;;;4878116;29;20338;-87
2022/09/08 01:04:32;;;;;;;;;;;;;;;;;;4872864;29;19980;-86
2022/09/08 01:12:43;;;;;;;;;;;;;;;;;;4906683;29;19961;-86
2022/09/08 01:15:09;;;;;;;;;;;;;;;;;;4892010;29;19927;-87
2022/09/08 01:17:35;;;;;;;;;;;;;;;;;;4887372;29;19926;-86
2022/09/08 01:20:01;;;;;;;;;;;;;;;;;;4902945;29;19923;-86
2022/09/08 01:22:27;;;;;;;;;;;;;;;;;;4885702;29;19937;-87
2022/09/08 01:24:53;;;;;;;;;;;;;;;;;;4876916;29;19931;-87
2022/09/08 01:27:21;;;;;;;;;;;;;;;;;;4894173;29;20029;-86
2022/09/08 01:29:47;;;;;;;;;;;;;;;;;;4870067;29;20021;-87
2022/09/08 01:32:13;;;;;;;;;;;;;;;;;;4893004;29;19974;-86
2022/09/08 01:34:39;;;;;;;;;;;;;;;;;;4882765;29;20485;-86
2022/09/08 01:37:05;;;;;;;;;;;;;;;;;;4872269;29;19927;-86
2022/09/08 01:39:31;;;;;;;;;;;;;;;;;;4882986;29;19930;-86
2022/09/08 01:41:57;;;;;;;;;;;;;;;;;;4876519;29;19930;-86
2022/09/08 01:44:23;;;;;;;;;;;;;;;;;;4873337;29;19935;-86
2022/09/08 01:46:49;;;;;;;;;;;;;;;;;;4869775;29;19931;-86
2022/09/08 01:49:15;;;;;;;;;;;;;;;;;;4886508;29;19949;-87
2022/09/08 01:51:41;;;;;;;;;;;;;;;;;;4875359;29;19937;-86
2022/09/08 01:54:07;;;;;;;;;;;;;;;;;;4875674;29;21248;-87
2022/09/08 01:56:33;;;;;;;;;;;;;;;;;;4871394;29;19938;-86
2022/09/08 01:58:59;;;;;;;;;;;;;;;;;;4874014;29;19937;-84
2022/09/08 02:01:25;;;;;;;;;;;;;;;;;;4890455;29;19923;-84
2022/09/08 02:03:51;;;;;;;;;;;;;;;;;;4887254;29;20399;-84
2022/09/08 02:06:17;;;;;;;;;;;;;;;;;;4891822;29;19971;-84
2022/09/08 02:08:43;;;;;;;;;;;;;;;;;;4888369;29;19938;-84
2022/09/08 02:11:09;;;;;;;;;;;;;;;;;;4888412;29;19985;-84
2022/09/08 02:13:35;;;;;;;;;;;;;;;;;;4867838;29;19930;-84
2022/09/08 02:16:06;;;;;;;;;;;;;;;;;;4891654;29;19977;-85
2022/09/08 02:18:32;;;;;;;;;;;;;;;;;;4907390;29;19926;-84
2022/09/08 02:20:59;;;;;;;;;;;;;;;;;;4875114;29;20465;-84
2022/09/08 02:23:25;;;;;;;;;;;;;;;;;;4874120;29;19986;-84
2022/09/08 02:25:51;;;;;;;;;;;;;;;;;;4886726;29;20307;-84
2022/09/08 02:28:17;;;;;;;;;;;;;;;;;;4888935;29;19933;-84
2022/09/08 02:30:43;;;;;;;;;;;;;;;;;;4873258;29;19978;-84
2022/09/08 02:33:10;;;;;;;;;;;;;;;;;;4875090;29;19927;-84
2022/09/08 02:35:36;;;;;;;;;;;;;;;;;;4891278;29;19933;-84
2022/09/08 02:38:02;;;;;;;;;;;;;;;;;;4903443;29;19934;-84
2022/09/08 02:40:28;;;;;;;;;;;;;;;;;;4885915;29;19970;-84
2022/09/08 02:42:54;;;;;;;;;;;;;;;;;;4890076;29;19935;-84
2022/09/08 02:45:20;;;;;;;;;;;;;;;;;;4892547;29;19965;-84
2022/09/08 02:47:46;;;;;;;;;;;;;;;;;;4887517;29;23075;-84
2022/09/08 02:50:12;;;;;;;;;;;;;;;;;;4889867;29;20128;-84
2022/09/08 02:52:38;;;;;;;;;;;;;;;;;;4903346;29;20029;-84
2022/09/08 02:55:04;;;;;;;;;;;;;;;;;;4890167;29;20425;-83
2022/09/08 02:57:30;;;;;;;;;;;;;;;;;;4885554;29;19946;-84
2022/09/08 02:59:56;;;;;;;;;;;;;;;;;;4892610;29;19926;-84
2022/09/08 03:02:22;;;;;;;;;;;;;;;;;;4875061;29;20505;-84
2022/09/08 03:04:49;;;;;;;;;;;;;;;;;;4904070;29;20587;-84
2022/09/08 03:07:15;;;;;;;;;;;;;;;;;;4877721;29;19923;-84
2022/09/08 03:09:41;;;;;;;;;;;;;;;;;;4887298;29;20012;-84
2022/09/08 03:12:07;;;;;;;;;;;;;;;;;;4902833;29;20374;-84
2022/09/08 03:14:33;;;;;;;;;;;;;;;;;;4872541;28;19927;-84
2022/09/08 03:16:59;;;;;;;;;;;;;;;;;;4875716;29;19926;-84
2022/09/08 03:19:25;;;;;;;;;;;;;;;;;;4884648;29;19923;-84
2022/09/08 03:21:51;;;;;;;;;;;;;;;;;;4872213;29;19930;-84
2022/09/08 03:24:17;;;;;;;;;;;;;;;;;;4874225;29;20322;-85
2022/09/08 03:26:43;;;;;;;;;;;;;;;;;;4903149;29;20014;-84
2022/09/08 03:29:10;;;;;;;;;;;;;;;;;;4886474;29;19927;-84
2022/09/08 03:31:36;;;;;;;;;;;;;;;;;;4887596;29;20391;-84
2022/09/08 03:34:02;;;;;;;;;;;;;;;;;;4873984;29;21086;-84
2022/09/08 03:36:28;;;;;;;;;;;;;;;;;;4871088;29;19923;-84
2022/09/08 03:38:54;;;;;;;;;;;;;;;;;;4895081;29;19927;-84
2022/09/08 03:41:20;;;;;;;;;;;;;;;;;;4889347;29;19930;-84
2022/09/08 03:43:46;;;;;;;;;;;;;;;;;;4869982;29;19986;-84
2022/09/08 03:46:12;;;;;;;;;;;;;;;;;;4887013;29;21044;-85
2022/09/08 03:48:38;;;;;;;;;;;;;;;;;;4882621;29;19955;-84
2022/09/08 03:51:04;;;;;;;;;;;;;;;;;;4888990;29;19923;-85
2022/09/08 03:53:30;;;;;;;;;;;;;;;;;;4879083;29;19946;-84
2022/09/08 03:55:56;;;;;;;;;;;;;;;;;;4873698;29;19931;-84
2022/09/08 03:58:22;;;;;;;;;;;;;;;;;;4889472;29;19939;-85
2022/09/08 04:00:49;;;;;;;;;;;;;;;;;;4886034;29;19950;-84
2022/09/08 04:03:17;;;;;;;;;;;;;;;;;;4873912;29;20294;-84
2022/09/08 04:05:43;;;;;;;;;;;;;;;;;;4885144;29;19953;-84
2022/09/08 04:08:09;;;;;;;;;;;;;;;;;;4887889;29;19926;-84
2022/09/08 04:10:35;;;;;;;;;;;;;;;;;;4873814;29;19931;-84
2022/09/08 04:13:04;;;;;;;;;;;;;;;;;;4905915;28;19937;-84
2022/09/08 04:15:30;;;;;;;;;;;;;;;;;;4886118;29;20038;-84
2022/09/08 04:17:56;;;;;;;;;;;;;;;;;;4869516;29;19930;-84
2022/09/08 04:20:22;;;;;;;;;;;;;;;;;;4873761;29;19922;-84
2022/09/08 04:22:47;;;;;;;;;;;;;;;;;;4883487;29;19942;-84
2022/09/08 04:25:14;;;;;;;;;;;;;;;;;;4897183;29;19970;-84
2022/09/08 04:27:40;;;;;;;;;;;;;;;;;;4881951;29;19977;-84
2022/09/08 04:30:07;;;;;;;;;;;;;;;;;;4904417;29;19926;-85
2022/09/08 04:32:38;;;;;;;;;;;;;;;;;;4862183;29;19931;-84
2022/09/08 04:35:11;;;;;;;;;;;;;;;;;;4887848;29;21639;-85
2022/09/08 04:37:40;;;;;;;;;;;;;;;;;;4893538;29;19934;-84
2022/09/08 04:40:08;;;;;;;;;;;;;;;;;;4895135;29;19927;-84
2022/09/08 04:42:37;;;;;;;;;;;;;;;;;;4890627;29;19973;-84
2022/09/08 04:45:08;;;;;;;;;;;;;;;;;;4894053;29;19945;-84
2022/09/08 04:47:34;;;;;;;;;;;;;;;;;;4884228;29;20608;-85
2022/09/08 04:50:03;;;;;;;;;;;;;;;;;;4879652;29;19934;-85
2022/09/08 04:52:31;;;;;;;;;;;;;;;;;;4880892;29;19954;-84
2022/09/08 04:55:02;;;;;;;;;;;;;;;;;;4891499;29;20348;-84
2022/09/08 04:57:28;;;;;;;;;;;;;;;;;;4875754;29;19931;-84
2022/09/08 04:59:54;;;;;;;;;;;;;;;;;;4895716;29;20430;-84
2022/09/08 05:02:28;;;;;;;;;;;;;;;;;;4890999;29;19927;-84
2022/09/08 05:05:12;;;;;;;;;;;;;;;;;;4893403;29;19942;-85
2022/09/08 05:07:41;;;;;;;;;;;;;;;;;;4902249;29;20325;-84
2022/09/08 05:10:13;;;;;;;;;;;;;;;;;;4873682;29;19929;-86
2022/09/08 05:12:46;;;;;;;;;;;;;;;;;;4880883;29;21379;-86
2022/09/08 05:15:14;;;;;;;;;;;;;;;;;;4862607;29;20120;-86
2022/09/08 05:17:43;;;;;;;;;;;;;;;;;;4878381;29;19927;-85
2022/09/08 05:20:18;;;;;;;;;;;;;;;;;;4883908;29;19958;-88
2022/09/08 05:22:56;;;;;;;;;;;;;;;;;;4884520;29;20005;-88
2022/09/08 05:25:42;;;;;;;;;;;;;;;;;;4912296;29;19958;-88
2022/09/08 05:28:22;;;;;;;;;;;;;;;;;;4909027;29;20378;-88
2022/09/08 05:30:57;;;;;;;;;;;;;;;;;;4885564;29;19930;-88
2022/09/08 05:33:35;;;;;;;;;;;;;;;;;;4904972;28;20298;-88
2022/09/08 05:36:22;;;;;;;;;;;;;;;;;;4829924;29;19974;-88
2022/09/08 05:38:49;;;;;;;;;;;;;;;;;;4836663;29;19936;-88
2022/09/08 05:41:21;;;;;;;;;;;;;;;;;;4832055;29;19924;-88
2022/09/08 05:43:51;;;;;;;;;;;;;;;;;;4834141;29;19942;-88
2022/09/08 05:46:27;;;;;;;;;;;;;;;;;;;;;
2022/09/08 05:48:59;;;;;;;;;;;;;;;;;;4897475;29;19927;-87
2022/09/08 05:51:25;;;;;;;;;;;;;;;;;;4876620;29;19931;-86
2022/09/08 05:53:51;;;;;;;;;;;;;;;;;;4896684;29;19923;-85
2022/09/08 05:56:22;;;;;;;;;;;;;;;;;;4913262;29;19922;-85
2022/09/08 05:59:25;;;;;;;;;;;;;;;;;;;;;
2022/09/08 06:01:59;;;;;;;;;;;;;;;;;;4884480;29;19974;-85
2022/09/08 06:04:27;;;;;;;;;;;;;;;;;;4876086;29;20021;-85
2022/09/08 06:06:59;;;;;;;;;;;;;;;;;;4877955;29;20011;-85
2022/09/08 06:09:25;;;;;;;;;;;;;;;;;;4878531;29;20573;-86
2022/09/08 06:11:57;;;;;;;;;;;;;;;;;;4876592;29;19938;-85
2022/09/08 06:14:39;;;;;;;;;;;;;;;;;;;;;
2022/09/08 06:20:34;;;;;;;;;;;;;;;;;;4829167;29;19988;-84
2022/09/08 06:23:08;;;;;;;;;;;;;;;;;;4855668;29;19939;-85
2022/09/08 06:25:37;;;;;;;;;;;;;;;;;;4840259;29;20018;-84
2022/09/08 06:28:10;;;;;;;;;;;;;;;;;;4850474;29;19931;-85
2022/09/08 06:30:39;;;;;;;;;;;;;;;;;;4896338;29;20294;-84
2022/09/08 06:33:05;;;;;;;;;;;;;;;;;;4884861;29;19933;-84
2022/09/08 06:35:31;;;;;;;;;;;;;;;;;;4894040;29;20013;-85
2022/09/08 06:37:57;;;;;;;;;;;;;;;;;;4882400;29;20248;-85
2022/09/08 06:40:25;;;;;;;;;;;;;;;;;;4882552;29;20373;-85
2022/09/08 06:42:52;;;;;;;;;;;;;;;;;;4880146;29;19933;-85
2022/09/08 06:45:20;;;;;;;;;;;;;;;;;;4903878;29;19929;-84
2022/09/08 06:47:46;;;;;;;;;;;;;;;;;;4881688;29;19970;-85
2022/09/08 06:50:12;;;;;;;;;;;;;;;;;;4901645;29;19930;-85
2022/09/08 06:52:41;;;;;;;;;;;;;;;;;;4878639;29;19927;-85
2022/09/08 06:55:15;;;;;;;;;;;;;;;;;;4884821;29;19931;-85
2022/09/08 06:57:48;;;;;;;;;;;;;;;;;;4895888;29;20018;-85
2022/09/08 07:00:14;;;;;;;;;;;;;;;;;;4897431;29;19927;-85
2022/09/08 07:02:40;;;;;;;;;;;;;;;;;;4894882;29;21037;-85
2022/09/08 07:05:11;;;;;;;;;;;;;;;;;;4911430;29;19931;-85
2022/09/08 07:07:37;;;;;;;;;;;;;;;;;;4905360;29;19977;-85
2022/09/08 07:10:05;;;;;;;;;;;;;;;;;;4894978;29;19927;-85
2022/09/08 07:12:31;;;;;;;;;;;;;;;;;;4911030;29;20293;-84
2022/09/08 07:14:57;;;;;;;;;;;;;;;;;;4920411;29;19923;-85
2022/09/08 07:17:23;;;;;;;;;;;;;;;;;;4895865;29;19970;-85
2022/09/08 07:19:49;;;;;;;;;;;;;;;;;;4871719;29;19981;-85
2022/09/08 07:22:15;;;;;;;;;;;;;;;;;;4883932;29;19931;-85
2022/09/08 07:24:44;;;;;;;;;;;;;;;;;;4877214;29;20601;-85
2022/09/08 07:27:10;;;;;;;;;;;;;;;;;;4880246;29;19930;-85
2022/09/08 07:29:36;;;;;;;;;;;;;;;;;;4891629;29;19927;-85
2022/09/08 07:32:11;;;;;;;;;;;;;;;;;;4880563;29;20282;-85
2022/09/08 07:34:37;;;;;;;;;;;;;;;;;;4877262;29;19948;-85
2022/09/08 07:37:03;;;;;;;;;;;;;;;;;;4885000;29;19937;-85
2022/09/08 07:39:32;;;;;;;;;;;;;;;;;;4877482;29;19931;-86
2022/09/08 07:42:06;;;;;;;;;;;;;;;;;;4880020;29;20080;-85
2022/09/08 07:44:47;;;;;;;;;;;;;;;;;;4873981;29;19935;-85
2022/09/08 07:47:13;;;;;;;;;;;;;;;;;;4885470;29;21412;-85
2022/09/08 07:49:42;;;;;;;;;;;;;;;;;;4880254;29;20278;-85
2022/09/08 07:52:08;;;;;;;;;;;;;;;;;;4877139;29;19927;-86
2022/09/08 07:54:34;;;;;;;;;;;;;;;;;;4880100;29;20109;-86
2022/09/08 07:57:00;;;;;;;;;;;;;;;;;;4892965;29;20021;-86
2022/09/08 07:59:32;;;;;;;;;;;;;;;;;;4902463;29;19927;-86
2022/09/08 08:02:05;;;;;;;;;;;;;;;;;;4877900;29;20132;-86
2022/09/08 08:04:38;;;;;;;;;;;;;;;;;;4878250;29;20298;-85
2022/09/08 08:07:04;;;;;;;;;;;;;;;;;;4890706;29;19954;-85
2022/09/08 08:09:30;;;;;;;;;;;;;;;;;;4906646;29;20274;-85
2022/09/08 08:11:56;;;;;;;;;;;;;;;;;;4917993;29;19965;-85
2022/09/08 08:14:22;;;;;;;;;;;;;;;;;;4916810;29;20382;-86
2022/09/08 08:16:48;;;;;;;;;;;;;;;;;;4898883;29;19937;-86
2022/09/08 08:19:14;;;;;;;;;;;;;;;;;;4900881;29;20373;-86
2022/09/08 08:21:40;;;;;;;;;;;;;;;;;;4881246;29;19935;-86
2022/09/08 08:24:06;;;;;;;;;;;;;;;;;;4901582;29;19930;-85
2022/09/08 08:26:32;;;;;;;;;;;;;;;;;;4908823;29;19923;-86
2022/09/08 08:28:58;;;;;;;;;;;;;;;;;;4881028;29;19974;-86
2022/09/08 08:31:31;;;;;;;;;;;;;;;;;;4898893;29;20334;-86
2022/09/08 08:33:57;;;;;;;;;;;;;;;;;;4896390;29;19923;-86
2022/09/08 08:36:24;;;;;;;;;;;;;;;;;;4886055;29;19923;-86
2022/09/08 08:39:08;;;;;;;;;;;;;;;;;;4897406;29;19930;-86
2022/09/08 08:41:34;;;;;;;;;;;;;;;;;;4879053;29;19931;-86
2022/09/08 08:44:00;;;;;;;;;;;;;;;;;;4886781;29;19937;-86
2022/09/08 08:46:28;;;;;;;;;;;;;;;;;;4900472;29;19930;-86
2022/09/08 08:48:54;;;;;;;;;;;;;;;;;;4915130;29;19923;-86
2022/09/08 08:51:20;;;;;;;;;;;;;;;;;;4885477;29;19926;-86
2022/09/08 08:53:46;;;;;;;;;;;;;;;;;;4880488;29;20267;-86
2022/09/08 08:56:14;;;;;;;;;;;;;;;;;;4916693;29;19937;-88
2022/09/08 08:58:43;;;;;;;;;;;;;;;;;;4891918;29;20286;-86
2022/09/08 09:01:12;;;;;;;;;;;;;;;;;;4900357;29;20017;-86
2022/09/08 09:03:38;;;;;;;;;;;;;;;;;;4898202;29;19927;-86
2022/09/08 09:06:07;;;;;;;;;;;;;;;;;;4883585;29;19937;-86
2022/09/08 09:08:36;;;;;;;;;;;;;;;;;;4896576;29;20018;-86
2022/09/08 09:11:02;;;;;;;;;;;;;;;;;;4895654;29;19926;-86
2022/09/08 09:13:28;;;;;;;;;;;;;;;;;;4895347;29;20334;-86
2022/09/08 09:16:01;;;;;;;;;;;;;;;;;;4896329;29;19935;-86
2022/09/08 09:18:27;;;;;;;;;;;;;;;;;;4897975;29;19982;-86
2022/09/08 09:20:54;;;;;;;;;;;;;;;;;;4877299;29;19930;-86
2022/09/08 09:23:20;;;;;;;;;;;;;;;;;;4902521;29;19927;-86
2022/09/08 09:25:49;;;;;;;;;;;;;;;;;;4900068;29;20708;-86
2022/09/08 09:28:15;;;;;;;;;;;;;;;;;;4890414;29;20366;-86
2022/09/08 09:30:41;;;;;;;;;;;;;;;;;;4885913;29;19923;-86
2022/09/08 09:33:07;;;;;;;;;;;;;;;;;;4901174;29;20405;-86
2022/09/08 09:35:33;;;;;;;;;;;;;;;;;;4882591;29;20379;-86
2022/09/08 09:37:59;;;;;;;;;;;;;;;;;;4908228;29;19998;-86
2022/09/08 09:40:25;;;;;;;;;;;;;;;;;;4902615;29;19942;-86
2022/09/08 09:42:57;;;;;;;;;;;;;;;;;;4907138;29;20346;-86
2022/09/08 09:45:23;;;;;;;;;;;;;;;;;;4885488;29;19930;-86
2022/09/08 09:47:52;;;;;;;;;;;;;;;;;;4898405;29;19982;-86
2022/09/08 09:50:18;;;;;;;;;;;;;;;;;;4887199;29;19934;-86
2022/09/08 09:52:44;;;;;;;;;;;;;;;;;;4884798;29;20366;-86
2022/09/08 09:55:10;;;;;;;;;;;;;;;;;;4903068;29;19929;-86
2022/09/08 09:57:36;;;;;;;;;;;;;;;;;;4880432;29;19930;-86
2022/09/08 10:00:04;;;;;;;;;;;;;;;;;;4899892;29;19963;-86
2022/09/08 10:02:30;;;;;;;;;;;;;;;;;;4881653;29;19923;-86
2022/09/08 10:04:56;;;;;;;;;;;;;;;;;;4881776;29;20025;-85
2022/09/08 10:07:22;;;;;;;;;;;;;;;;;;4901713;29;20049;-86
2022/09/08 10:09:48;;;;;;;;;;;;;;;;;;4881122;29;19946;-86
2022/09/08 10:12:14;;;;;;;;;;;;;;;;;;4886392;29;19927;-86
2022/09/08 10:14:40;;;;;;;;;;;;;;;;;;4882048;29;19930;-86
2022/09/08 10:17:09;;;;;;;;;;;;;;;;;;4883937;29;20282;-86
2022/09/08 10:19:35;;;;;;;;;;;;;;;;;;4883246;29;19934;-85
2022/09/08 10:22:01;;;;;;;;;;;;;;;;;;4878670;29;19931;-86
2022/09/08 10:24:31;;;;;;;;;;;;;;;;;;4878116;29;19934;-85
2022/09/08 10:26:57;;;;;;;;;;;;;;;;;;4885411;29;19923;-85
2022/09/08 10:29:23;;;;;;;;;;;;;;;;;;4895342;29;20745;-86
2022/09/08 10:31:49;;;;;;;;;;;;;;;;;;4891200;29;19940;-86
2022/09/08 10:34:17;;;;;;;;;;;;;;;;;;4895694;29;19937;-86
2022/09/08 10:36:43;;;;;;;;;;;;;;;;;;4873778;29;19930;-86
2022/09/08 10:39:11;;;;;;;;;;;;;;;;;;4883595;29;20351;-86
2022/09/08 10:41:37;;;;;;;;;;;;;;;;;;4858059;29;19939;-86
2022/09/08 10:44:07;;;;;;;;;;;;;;;;;;4864816;29;19944;-86
2022/09/08 10:46:33;;;;;;;;;;;;;;;;;;4869515;29;19927;-86
2022/09/08 10:48:59;;;;;;;;;;;;;;;;;;4878211;29;19950;-86
2022/09/08 10:51:25;;;;;;;;;;;;;;;;;;4863224;29;20014;-86
2022/09/08 10:53:54;;;;;;;;;;;;;;;;;;4864917;29;20017;-86
2022/09/08 10:56:21;;;;;;;;;;;;;;;;;;4860437;29;19927;-86
2022/09/08 10:58:49;;;;;;;;;;;;;;;;;;4872072;29;23562;-86
2022/09/08 11:01:15;;;;;;;;;;;;;;;;;;4872936;29;19950;-87
2022/09/08 11:03:41;;;;;;;;;;;;;;;;;;4869577;29;20375;-86
2022/09/08 11:06:10;;;;;;;;;;;;;;;;;;4861035;29;20422;-86
2022/09/08 11:39:39;;;;;;;;;;;;;;;;;;4850285;29;19932;-85
2022/09/08 11:42:17;;;;;;;;;;;;;;;;;;4854795;29;20044;-86
2022/09/08 12:05:08;;;;;;;;;;;;;;;;;;4906789;29;20073;-85
2022/09/08 12:11:27;;;;;;;;;;;;;;;;;;4891148;29;20350;-87
2022/09/08 12:20:23;;;;;;;;;;;;;;;;;;4883751;29;19927;-85
2022/09/08 12:23:12;;;;;;;;;;;;;;;;;;4865412;29;19928;-86
2022/09/08 12:29:30;;;;;;;;;;;;;;;;;;;;;
2022/09/08 12:32:17;;;;;;;;;;;;;;;;;;4861994;29;19927;-86
2022/09/08 12:35:10;;;;;;;;;;;;;;;;;;;;;
2022/09/08 12:40:44;;;;;;;;;;;;;;;;;;4933660;28;20314;-86
2022/09/08 12:45:55;;;;;;;;;;;;;;;;;;5269890;23;19965;-88
2022/09/08 12:48:21;;;;;;;;;;;;;;;;;;4950787;28;19973;-88
2022/09/08 12:50:47;;;;;;;;;;;;;;;;;;4945087;28;21129;-87
2022/09/08 12:53:13;;;;;;;;;;;;;;;;;;4936377;28;19930;-88
2022/09/08 12:55:39;;;;;;;;;;;;;;;;;;4931879;28;19932;-87
2022/09/08 12:58:06;;;;;;;;;;;;;;;;;;4952476;28;19936;-87
2022/09/08 13:00:32;;;;;;;;;;;;;;;;;;4948322;28;19929;-87
2022/09/08 13:02:58;;;;;;;;;;;;;;;;;;4956361;28;20333;-87
2022/09/08 13:05:31;;;;;;;;;;;;;;;;;;4940565;28;20050;-87
2022/09/08 13:07:57;;;;;;;;;;;;;;;;;;4941317;28;21072;-87
2022/09/08 13:10:24;;;;;;;;;;;;;;;;;;4955587;28;19964;-87
2022/09/08 13:12:50;;;;;;;;;;;;;;;;;;4934357;28;19931;-87
2022/09/08 13:15:16;;;;;;;;;;;;;;;;;;4957541;28;19973;-87
2022/09/08 13:17:42;;;;;;;;;;;;;;;;;;4936098;28;20095;-87
2022/09/08 13:20:08;;;;;;;;;;;;;;;;;;4939026;28;19930;-87
2022/09/08 13:22:34;;;;;;;;;;;;;;;;;;4952929;28;19962;-87
2022/09/08 13:25:00;;;;;;;;;;;;;;;;;;4952452;28;20033;-87
2022/09/08 13:27:47;;;;;;;;;;;;;;;;;;4928173;28;19933;-87
2022/09/08 13:30:15;;;;;;;;;;;;;;;;;;4954316;28;19988;-87
2022/09/08 13:32:44;;;;;;;;;;;;;;;;;;4953077;28;19931;-87
2022/09/08 13:35:10;;;;;;;;;;;;;;;;;;4943879;28;19980;-88
2022/09/08 13:37:36;;;;;;;;;;;;;;;;;;4948071;28;20012;-87
2022/09/08 13:40:02;;;;;;;;;;;;;;;;;;4944148;28;20452;-88
2022/09/08 13:42:28;;;;;;;;;;;;;;;;;;4926922;28;19926;-87
2022/09/08 13:45:13;;;;;;;;;;;;;;;;;;4932135;28;19926;-88
2022/09/08 13:47:39;;;;;;;;;;;;;;;;;;4923350;28;20010;-87
2022/09/08 13:50:05;;;;;;;;;;;;;;;;;;4919997;28;19962;-88
2022/09/08 13:52:31;;;;;;;;;;;;;;;;;;4931546;28;20405;-87
2022/09/08 13:54:57;;;;;;;;;;;;;;;;;;4917142;28;19930;-88
2022/09/08 13:57:23;;;;;;;;;;;;;;;;;;4927056;28;19925;-87
2022/09/08 13:59:49;;;;;;;;;;;;;;;;;;4930175;28;19930;-88
2022/09/08 14:02:15;;;;;;;;;;;;;;;;;;4916641;28;20293;-88
2022/09/08 14:04:41;;;;;;;;;;;;;;;;;;4926897;28;19941;-87
2022/09/08 14:07:10;;;;;;;;;;;;;;;;;;4933814;28;20000;-88
2022/09/08 14:09:39;;;;;;;;;;;;;;;;;;4931103;28;20278;-88
2022/09/08 14:12:06;;;;;;;;;;;;;;;;;;4952235;28;19945;-88
2022/09/08 14:14:35;;;;;;;;;;;;;;;;;;4924883;28;19936;-88
2022/09/08 14:17:03;;;;;;;;;;;;;;;;;;4955029;28;19930;-88
2022/09/08 14:19:29;;;;;;;;;;;;;;;;;;4938698;28;19965;-88
2022/09/08 14:21:55;;;;;;;;;;;;;;;;;;4921965;28;20014;-88
2022/09/08 14:24:32;;;;;;;;;;;;;;;;;;4924526;28;19930;-88
2022/09/08 14:26:58;;;;;;;;;;;;;;;;;;4941446;28;20020;-88
2022/09/08 14:29:41;;;;;;;;;;;;;;;;;;4928098;28;19997;-88
2022/09/08 14:32:10;;;;;;;;;;;;;;;;;;4936333;28;19994;-88
2022/09/08 14:34:36;;;;;;;;;;;;;;;;;;4930258;28;20018;-88
2022/09/08 14:37:05;;;;;;;;;;;;;;;;;;4922783;28;19972;-88
2022/09/08 14:39:31;;;;;;;;;;;;;;;;;;4937281;28;19946;-88
2022/09/08 14:42:02;;;;;;;;;;;;;;;;;;4917729;28;20369;-83
2022/09/08 14:44:28;;;;;;;;;;;;;;;;;;4911755;28;20029;-83
2022/09/08 14:46:54;;;;;;;;;;;;;;;;;;4913348;28;19931;-83
2022/09/08 14:49:20;;;;;;;;;;;;;;;;;;4927690;28;19926;-83
2022/09/08 14:51:54;;;;;;;;;;;;;;;;;;4932826;28;19937;-83
2022/09/08 14:54:20;;;;;;;;;;;;;;;;;;4933306;28;19926;-84
2022/09/08 14:56:53;;;;;;;;;;;;;;;;;;4931830;28;19937;-88
2022/09/08 14:59:19;;;;;;;;;;;;;;;;;;4930276;28;20025;-87
2022/09/08 15:01:45;;;;;;;;;;;;;;;;;;4915127;28;19926;-83
2022/09/08 15:04:11;;;;;;;;;;;;;;;;;;4920455;28;19933;-83
2022/09/08 15:06:37;;;;;;;;;;;;;;;;;;4954112;28;19926;-83
2022/09/08 15:09:03;;;;;;;;;;;;;;;;;;4954681;28;19934;-83
2022/09/08 15:11:32;;;;;;;;;;;;;;;;;;4945467;28;19969;-83
2022/09/08 15:13:58;;;;;;;;;;;;;;;;;;4946950;28;19993;-83
2022/09/08 15:16:24;;;;;;;;;;;;;;;;;;4942645;28;19957;-83
2022/09/08 15:18:51;;;;;;;;;;;;;;;;;;4903783;28;19952;-84
2022/09/08 15:21:17;;;;;;;;;;;;;;;;;;4921735;28;19965;-82
2022/09/08 15:23:43;;;;;;;;;;;;;;;;;;4927030;28;20894;-83
2022/09/08 15:26:09;;;;;;;;;;;;;;;;;;4935950;28;20124;-83
2022/09/08 15:28:35;;;;;;;;;;;;;;;;;;4929312;28;19930;-82
2022/09/08 15:31:01;;;;;;;;;;;;;;;;;;4926073;28;19933;-82
2022/09/08 15:33:27;;;;;;;;;;;;;;;;;;4938068;28;19926;-81
2022/09/08 15:35:55;;;;;;;;;;;;;;;;;;4931364;28;20057;-81
2022/09/08 15:38:21;;;;;;;;;;;;;;;;;;4947928;28;20435;-81
2022/09/08 15:40:47;;;;;;;;;;;;;;;;;;4945549;28;19961;-82
2022/09/08 15:43:16;;;;;;;;;;;;;;;;;;4951075;28;19922;-81
2022/09/08 15:45:42;;;;;;;;;;;;;;;;;;4925592;28;20057;-82
2022/09/08 15:48:08;;;;;;;;;;;;;;;;;;4927601;28;19926;-81
2022/09/08 15:50:34;;;;;;;;;;;;;;;;;;4925840;28;19922;-82
2022/09/08 15:53:00;;;;;;;;;;;;;;;;;;4931838;28;19933;-82
2022/09/08 15:55:25;;;;;;;;;;;;;;;;;;4927197;28;19965;-81
2022/09/08 15:57:51;;;;;;;;;;;;;;;;;;4920693;28;19926;-82
2022/09/08 16:00:20;;;;;;;;;;;;;;;;;;4930142;28;19926;-82
2022/09/08 16:02:46;;;;;;;;;;;;;;;;;;4917352;28;19930;-82
2022/09/08 16:05:12;;;;;;;;;;;;;;;;;;4915954;28;19941;-80
2022/09/08 16:07:38;;;;;;;;;;;;;;;;;;4921431;28;20009;-80
2022/09/08 16:10:04;;;;;;;;;;;;;;;;;;4922803;28;19985;-80
2022/09/08 16:12:31;;;;;;;;;;;;;;;;;;4917226;28;20061;-82
2022/09/08 16:14:57;;;;;;;;;;;;;;;;;;4924091;28;19923;-81
2022/09/08 16:17:23;;;;;;;;;;;;;;;;;;4919984;28;19930;-81
2022/09/08 16:19:49;;;;;;;;;;;;;;;;;;4915820;28;19930;-81
2022/09/08 16:22:15;;;;;;;;;;;;;;;;;;4922949;28;19969;-80
2022/09/08 16:24:44;;;;;;;;;;;;;;;;;;4904880;28;19969;-80
2022/09/08 16:27:12;;;;;;;;;;;;;;;;;;4920873;28;19946;-80
2022/09/08 16:29:38;;;;;;;;;;;;;;;;;;4911337;28;19937;-80
2022/09/08 16:32:04;;;;;;;;;;;;;;;;;;4921956;28;19930;-80
2022/09/08 16:34:30;;;;;;;;;;;;;;;;;;4915881;28;19930;-80
2022/09/08 16:36:58;;;;;;;;;;;;;;;;;;4922489;28;19930;-80
2022/09/08 16:39:23;;;;;;;;;;;;;;;;;;4915994;28;19938;-80
2022/09/08 16:41:49;;;;;;;;;;;;;;;;;;4913534;28;19931;-80
2022/09/08 16:44:15;;;;;;;;;;;;;;;;;;4930107;28;19938;-80
2022/09/08 16:46:42;;;;;;;;;;;;;;;;;;4943380;28;19940;-79
2022/09/08 16:49:08;;;;;;;;;;;;;;;;;;4914102;28;19936;-80
2022/09/08 16:51:33;;;;;;;;;;;;;;;;;;4923894;28;20605;-80
2022/09/08 16:54:01;;;;;;;;;;;;;;;;;;4929676;28;20009;-80
2022/09/08 16:56:27;;;;;;;;;;;;;;;;;;4914695;28;23699;-80
2022/09/08 16:58:53;;;;;;;;;;;;;;;;;;4918436;28;19941;-80
2022/09/08 17:01:20;;;;;;;;;;;;;;;;;;4927588;28;19930;-86
2022/09/08 17:03:47;;;;;;;;;;;;;;;;;;4937096;28;19930;-86
2022/09/08 17:06:13;;;;;;;;;;;;;;;;;;4910749;28;19936;-86
2022/09/08 17:08:40;;;;;;;;;;;;;;;;;;4929817;28;19922;-86
2022/09/08 17:11:07;;;;;;;;;;;;;;;;;;4954024;28;19964;-86
2022/09/08 17:13:34;;;;;;;;;;;;;;;;;;4937029;28;19922;-86
2022/09/08 17:16:02;;;;;;;;;;;;;;;;;;4938889;28;20013;-86
2022/09/08 17:18:53;;;;;;;;;;;;;;;;;;4912306;28;19931;-87
2022/09/08 17:21:38;;;;;;;;;;;;;;;;;;;;;
2022/09/08 17:27:37;;;;;;;;;;;;;;;;;;4931272;28;19926;-86
2022/09/08 17:30:40;;;;;;;;;;;;;;;;;;4857695;29;20298;-86
2022/09/08 17:36:39;;;;;;;;;;;;;;;;;;;;;
2022/09/08 17:39:05;;;;;;;;;;;;;;;;;;4836974;29;19957;-86
2022/09/08 17:41:35;;;;;;;;;;;;;;;;;;4847709;28;19937;-86
2022/09/08 17:44:10;;;;;;;;;;;;;;;;;;4921288;28;19945;-86
2022/09/08 17:46:55;;;;;;;;;;;;;;;;;;4918906;28;19945;-86
2022/09/08 17:49:49;;;;;;;;;;;;;;;;;;4933375;28;19930;-86
2022/09/08 17:55:35;;;;;;;;;;;;;;;;;;4935802;28;20027;-86
2022/09/08 17:58:34;;;;;;;;;;;;;;;;;;4936185;28;19926;-86
2022/09/08 18:00:53;;;;;;;;;;;;;;;;;;4933547;28;19935;-86
2022/09/08 18:03:19;;;;;;;;;;;;;;;;;;4920444;29;19926;-86
2022/09/08 18:05:46;;;;;;;;;;;;;;;;;;4919359;28;20337;-86
2022/09/08 18:08:12;;;;;;;;;;;;;;;;;;4933687;28;19927;-86
2022/09/08 18:10:46;;;;;;;;;;;;;;;;;;4917905;29;19923;-86
2022/09/08 18:13:12;;;;;;;;;;;;;;;;;;4914016;29;19934;-86
2022/09/08 18:15:41;;;;;;;;;;;;;;;;;;4915510;28;19926;-86
2022/09/08 18:18:10;;;;;;;;;;;;;;;;;;4925382;28;20009;-86
2022/09/08 18:20:39;;;;;;;;;;;;;;;;;;4910976;28;19985;-86
2022/09/08 18:23:05;;;;;;;;;;;;;;;;;;4917663;29;19922;-86
2022/09/08 18:25:38;;;;;;;;;;;;;;;;;;4911699;28;19937;-86
2022/09/08 18:28:07;;;;;;;;;;;;;;;;;;4921626;29;19932;-86